Monday, January 21, 2019, 5:06 PM EST
Back to Local

K40B, Clayton Lake

Location: Ashland, ME, United States Lat: 46.617
Local Time: 5:06 PM EST (22:06 GMT) Lon: -69.533
Time Zone: US/Eastern Elev: 1030 ft

Show me the last for .
Show Decoded

2019-01-21 16:16 METAR K40B 212116Z AUTO VRB04G10KT M17/M19 A2963 RMK AO1 SLP079 T11681189 53023
                 P0001 60004 =
2019-01-21 15:16 METAR K40B 212016Z AUTO VRB06G12KT M17/M19 A2960 RMK AO1 SLP069 T11671190 53015
                 P0001 =
2019-01-21 14:16 METAR K40B 211916Z AUTO VRB04G15KT M17/M19 A2957 RMK AO1 SLP059 T11661189 52011
                 P0003 =
2019-01-21 13:16 METAR K40B 211816Z AUTO 30008G13KT 270V340 M17/M19 A2956 RMK AO1 SLP055
                 T11681193 11164 21173 52008 P0001 60009 =
2019-01-21 12:16 METAR K40B 211716Z AUTO VRB03G17KT M17/M19 A2955 RMK AO1 SLP053 T11661188 51014
                 P0003 =
2019-01-21 11:16 METAR K40B 211616Z AUTO 30007G13KT 240V360 M17/M19 A2954 RMK AO1 SLP046
                 T11681191 51019 =
2019-01-21 10:16 METAR K40B 211516Z AUTO VRB04G13KT M17/M19 A2954 RMK AO1 SLP045 T11691190 53023
                 P0004 60005 =
2019-01-21 09:16 METAR K40B 211416Z AUTO VRB02G14KT M17/M19 A2951 RMK AO1 SLP036 T11701191 53018
                 P0001 =
2019-01-21 08:16 METAR K40B 211316Z AUTO VRB05G13KT M17/M19 A2948 RMK AO1 SLP025 T11721193 51015
                 P0001 =
2019-01-21 07:16 METAR K40B 211216Z AUTO VRB03G12KT M17/M19 A2946 RMK AO1 SLP020 T11691189 11153
                 21169 51015 60001 70015 =
2019-01-21 06:16 METAR K40B 211116Z AUTO VRB04G11KT M17/M19 A2946 RMK AO1 SLP017 T11671188 53014
                 =
2019-01-21 05:16 METAR K40B 211016Z AUTO VRB04G12KT M17/M19 A2943 RMK AO1 SLP009 T11671188 52007
                 =
2019-01-21 04:16 METAR K40B 210916Z AUTO 30007G14KT 210V350 M17/M19 A2942 RMK AO1 SLP006
                 T11671189 51012 P0001 60001 =
2019-01-21 03:16 METAR K40B 210816Z AUTO VRB04KT M16/M18 A2941 RMK AO1 SLP003 T11621182 50010 =
2019-01-21 02:16 METAR K40B 210716Z AUTO VRB05G14KT M16/M18 A2941 RMK AO1 SLP002 T11601180 53010
                 P0001 =
2019-01-21 01:16 METAR K40B 210616Z AUTO VRB04G16KT M15/M17 A2938 RMK AO1 SLP994 T11531173 11130
                 21164 53002 P0004 60006 =
2019-01-21 00:16 METAR K40B 210516Z AUTO VRB05G11KT M14/M16 A2938 RMK AO1 SLP994 T11441163
                 411301232 55001 P0001 =
2019-01-20 23:16 METAR K40B 210416Z AUTO VRB04G11KT M13/M15 A2938 RMK AO1 SLP994 T11321149 55006
                 =
2019-01-20 22:16 METAR K40B 210316Z AUTO VRB05G15KT M14/M15 A2938 RMK AO1 SLP996 T11371154 56015
                 60001 =
2019-01-20 21:16 METAR K40B 210216Z AUTO VRB04KT M14/M16 A2939 RMK AO1 SLP000 T11391157 56024
                 P0001 =
2019-01-20 20:16 METAR K40B 210116Z AUTO 00000KT M15/M17 A2940 RMK AO1 SLP005 T11511169 57029 =
2019-01-20 19:16 METAR K40B 210016Z AUTO VRB04KT M16/M18 A2943 RMK AO1 SLP016 T11631183 11163
                 21202 56032 60004 =
2019-01-20 18:16 METAR K40B 202316Z AUTO VRB03KT M17/M19 A2946 RMK AO1 SLP029 T11741194 56026 =
2019-01-20 17:16 METAR K40B 202216Z AUTO VRB03KT M18/M20 A2949 RMK AO1 SLP037 T11781199 56033
                 P0001 =

Support USWX by starting your Amazon purchase here.